sensor_id;sensor_type;location;lat;lon;timestamp;P1;durP1;ratioP1;P2;durP2;ratioP2
21903;SDS011;11116;51.554;7.812;2022-08-05T00:02:11;7.30;;;1.70;;
21903;SDS011;11116;51.554;7.812;2022-08-05T00:04:39;1.55;;;1.25;;
21903;SDS011;11116;51.554;7.812;2022-08-05T00:07:06;1.77;;;1.55;;
21903;SDS011;11116;51.554;7.812;2022-08-05T00:09:33;6.30;;;2.13;;
21903;SDS011;11116;51.554;7.812;2022-08-05T00:12:00;4.78;;;1.80;;
21903;SDS011;11116;51.554;7.812;2022-08-05T00:14:27;2.15;;;1.95;;
21903;SDS011;11116;51.554;7.812;2022-08-05T00:16:55;3.55;;;1.77;;
21903;SDS011;11116;51.554;7.812;2022-08-05T00:19:22;3.30;;;2.17;;
21903;SDS011;11116;51.554;7.812;2022-08-05T00:21:50;2.00;;;1.77;;
21903;SDS011;11116;51.554;7.812;2022-08-05T00:24:17;2.78;;;1.70;;
21903;SDS011;11116;51.554;7.812;2022-08-05T00:26:44;2.72;;;1.65;;
21903;SDS011;11116;51.554;7.812;2022-08-05T00:29:10;3.03;;;1.60;;
21903;SDS011;11116;51.554;7.812;2022-08-05T00:31:37;6.43;;;1.83;;
21903;SDS011;11116;51.554;7.812;2022-08-05T00:34:06;1.70;;;1.60;;
21903;SDS011;11116;51.554;7.812;2022-08-05T00:36:33;4.45;;;1.95;;
21903;SDS011;11116;51.554;7.812;2022-08-05T00:39:00;2.10;;;1.90;;
21903;SDS011;11116;51.554;7.812;2022-08-05T00:41:27;4.35;;;2.10;;
21903;SDS011;11116;51.554;7.812;2022-08-05T00:43:54;3.85;;;2.50;;
21903;SDS011;11116;51.554;7.812;2022-08-05T00:46:22;2.17;;;1.48;;
21903;SDS011;11116;51.554;7.812;2022-08-05T00:48:49;4.15;;;2.17;;
21903;SDS011;11116;51.554;7.812;2022-08-05T00:51:18;4.82;;;2.17;;
21903;SDS011;11116;51.554;7.812;2022-08-05T00:53:45;3.58;;;1.92;;
21903;SDS011;11116;51.554;7.812;2022-08-05T00:56:13;4.78;;;1.83;;
21903;SDS011;11116;51.554;7.812;2022-08-05T00:58:41;4.10;;;2.10;;
21903;SDS011;11116;51.554;7.812;2022-08-05T01:01:09;3.22;;;1.92;;
21903;SDS011;11116;51.554;7.812;2022-08-05T01:03:37;3.22;;;2.10;;
21903;SDS011;11116;51.554;7.812;2022-08-05T01:06:04;4.88;;;2.00;;
21903;SDS011;11116;51.554;7.812;2022-08-05T01:08:33;5.13;;;2.15;;
21903;SDS011;11116;51.554;7.812;2022-08-05T01:11:03;4.57;;;2.20;;
21903;SDS011;11116;51.554;7.812;2022-08-05T01:13:35;6.20;;;2.65;;
21903;SDS011;11116;51.554;7.812;2022-08-05T01:16:09;2.15;;;1.95;;
21903;SDS011;11116;51.554;7.812;2022-08-05T01:18:41;4.82;;;1.83;;
21903;SDS011;11116;51.554;7.812;2022-08-05T01:21:22;2.28;;;2.08;;
21903;SDS011;11116;51.554;7.812;2022-08-05T01:24:22;4.30;;;2.10;;
21903;SDS011;11116;51.554;7.812;2022-08-05T01:27:02;4.78;;;2.40;;
21903;SDS011;11116;51.554;7.812;2022-08-05T01:29:37;3.85;;;2.40;;
21903;SDS011;11116;51.554;7.812;2022-08-05T01:32:09;3.10;;;2.22;;
21903;SDS011;11116;51.554;7.812;2022-08-05T01:34:42;2.70;;;2.03;;
21903;SDS011;11116;51.554;7.812;2022-08-05T01:37:15;4.07;;;1.95;;
21903;SDS011;11116;51.554;7.812;2022-08-05T01:39:45;3.17;;;2.20;;
21903;SDS011;11116;51.554;7.812;2022-08-05T01:42:15;2.95;;;1.88;;
21903;SDS011;11116;51.554;7.812;2022-08-05T01:44:47;3.25;;;1.70;;
21903;SDS011;11116;51.554;7.812;2022-08-05T01:47:16;2.78;;;2.10;;
21903;SDS011;11116;51.554;7.812;2022-08-05T01:49:45;3.83;;;2.08;;
21903;SDS011;11116;51.554;7.812;2022-08-05T01:52:15;4.88;;;2.22;;
21903;SDS011;11116;51.554;7.812;2022-08-05T01:54:45;3.25;;;2.08;;
21903;SDS011;11116;51.554;7.812;2022-08-05T01:57:17;8.02;;;2.30;;
21903;SDS011;11116;51.554;7.812;2022-08-05T01:59:51;3.42;;;2.47;;
21903;SDS011;11116;51.554;7.812;2022-08-05T02:02:21;2.85;;;1.98;;
21903;SDS011;11116;51.554;7.812;2022-08-05T02:04:50;4.53;;;2.42;;
21903;SDS011;11116;51.554;7.812;2022-08-05T02:07:19;3.65;;;1.92;;
21903;SDS011;11116;51.554;7.812;2022-08-05T02:09:47;5.40;;;2.42;;
21903;SDS011;11116;51.554;7.812;2022-08-05T02:12:15;2.28;;;2.00;;
21903;SDS011;11116;51.554;7.812;2022-08-05T02:14:46;3.70;;;2.25;;
21903;SDS011;11116;51.554;7.812;2022-08-05T02:17:23;3.92;;;2.45;;
21903;SDS011;11116;51.554;7.812;2022-08-05T02:19:57;2.83;;;2.50;;
21903;SDS011;11116;51.554;7.812;2022-08-05T02:22:29;6.20;;;3.00;;
21903;SDS011;11116;51.554;7.812;2022-08-05T02:25:02;5.75;;;2.50;;
21903;SDS011;11116;51.554;7.812;2022-08-05T02:27:34;4.68;;;2.47;;
21903;SDS011;11116;51.554;7.812;2022-08-05T02:30:04;3.45;;;3.15;;
21903;SDS011;11116;51.554;7.812;2022-08-05T02:32:35;5.93;;;2.63;;
21903;SDS011;11116;51.554;7.812;2022-08-05T02:35:06;4.97;;;2.55;;
21903;SDS011;11116;51.554;7.812;2022-08-05T02:37:38;3.20;;;2.58;;
21903;SDS011;11116;51.554;7.812;2022-08-05T02:40:07;6.78;;;2.97;;
21903;SDS011;11116;51.554;7.812;2022-08-05T02:42:35;5.60;;;2.90;;
21903;SDS011;11116;51.554;7.812;2022-08-05T02:45:04;4.75;;;2.78;;
21903;SDS011;11116;51.554;7.812;2022-08-05T02:47:36;6.07;;;2.90;;
21903;SDS011;11116;51.554;7.812;2022-08-05T02:50:04;4.60;;;2.83;;
21903;SDS011;11116;51.554;7.812;2022-08-05T02:52:33;8.23;;;3.03;;
21903;SDS011;11116;51.554;7.812;2022-08-05T02:55:02;5.85;;;3.20;;
21903;SDS011;11116;51.554;7.812;2022-08-05T02:57:31;6.65;;;3.28;;
21903;SDS011;11116;51.554;7.812;2022-08-05T02:59:59;4.00;;;3.33;;
21903;SDS011;11116;51.554;7.812;2022-08-05T03:02:27;6.88;;;3.53;;
21903;SDS011;11116;51.554;7.812;2022-08-05T03:04:58;6.97;;;3.25;;
21903;SDS011;11116;51.554;7.812;2022-08-05T03:07:26;4.40;;;3.20;;
21903;SDS011;11116;51.554;7.812;2022-08-05T03:09:54;5.00;;;3.50;;
21903;SDS011;11116;51.554;7.812;2022-08-05T03:12:28;7.13;;;3.50;;
21903;SDS011;11116;51.554;7.812;2022-08-05T03:14:55;3.75;;;3.30;;
21903;SDS011;11116;51.554;7.812;2022-08-05T03:17:23;7.65;;;3.22;;
21903;SDS011;11116;51.554;7.812;2022-08-05T03:19:50;5.45;;;3.63;;
21903;SDS011;11116;51.554;7.812;2022-08-05T03:22:18;3.08;;;2.78;;
21903;SDS011;11116;51.554;7.812;2022-08-05T03:24:46;6.75;;;3.22;;
21903;SDS011;11116;51.554;7.812;2022-08-05T03:27:14;9.10;;;4.22;;
21903;SDS011;11116;51.554;7.812;2022-08-05T03:29:42;7.28;;;3.65;;
21903;SDS011;11116;51.554;7.812;2022-08-05T03:32:09;5.32;;;3.70;;
21903;SDS011;11116;51.554;7.812;2022-08-05T03:34:36;6.57;;;3.47;;
21903;SDS011;11116;51.554;7.812;2022-08-05T03:37:04;8.25;;;3.97;;
21903;SDS011;11116;51.554;7.812;2022-08-05T03:39:32;5.82;;;3.78;;
21903;SDS011;11116;51.554;7.812;2022-08-05T03:41:59;6.38;;;4.35;;
21903;SDS011;11116;51.554;7.812;2022-08-05T03:44:26;9.70;;;4.35;;
21903;SDS011;11116;51.554;7.812;2022-08-05T03:46:53;8.40;;;5.00;;
21903;SDS011;11116;51.554;7.812;2022-08-05T03:49:20;10.48;;;4.32;;
21903;SDS011;11116;51.554;7.812;2022-08-05T03:51:49;4.72;;;3.55;;
21903;SDS011;11116;51.554;7.812;2022-08-05T03:54:22;7.57;;;4.05;;
21903;SDS011;11116;51.554;7.812;2022-08-05T03:56:58;8.25;;;4.82;;
21903;SDS011;11116;51.554;7.812;2022-08-05T03:59:30;9.15;;;5.30;;
21903;SDS011;11116;51.554;7.812;2022-08-05T04:02:03;12.27;;;4.72;;
21903;SDS011;11116;51.554;7.812;2022-08-05T04:04:30;9.38;;;5.32;;
21903;SDS011;11116;51.554;7.812;2022-08-05T04:06:59;9.75;;;5.10;;
21903;SDS011;11116;51.554;7.812;2022-08-05T04:09:27;10.88;;;5.68;;
21903;SDS011;11116;51.554;7.812;2022-08-05T04:11:55;8.55;;;5.65;;
21903;SDS011;11116;51.554;7.812;2022-08-05T04:14:24;9.32;;;5.80;;
21903;SDS011;11116;51.554;7.812;2022-08-05T04:16:52;14.93;;;6.65;;
21903;SDS011;11116;51.554;7.812;2022-08-05T04:19:19;10.00;;;5.93;;
21903;SDS011;11116;51.554;7.812;2022-08-05T04:21:46;14.95;;;7.68;;
21903;SDS011;11116;51.554;7.812;2022-08-05T04:24:13;13.60;;;7.63;;
21903;SDS011;11116;51.554;7.812;2022-08-05T04:26:40;10.18;;;6.88;;
21903;SDS011;11116;51.554;7.812;2022-08-05T04:29:08;11.02;;;6.65;;
21903;SDS011;11116;51.554;7.812;2022-08-05T04:31:36;12.90;;;8.38;;
21903;SDS011;11116;51.554;7.812;2022-08-05T04:34:03;11.80;;;7.78;;
21903;SDS011;11116;51.554;7.812;2022-08-05T04:36:30;9.93;;;7.10;;
21903;SDS011;11116;51.554;7.812;2022-08-05T04:38:57;9.13;;;7.47;;
21903;SDS011;11116;51.554;7.812;2022-08-05T04:41:24;14.07;;;7.60;;
21903;SDS011;11116;51.554;7.812;2022-08-05T04:43:51;8.50;;;6.97;;
21903;SDS011;11116;51.554;7.812;2022-08-05T04:46:17;11.55;;;7.65;;
21903;SDS011;11116;51.554;7.812;2022-08-05T04:48:46;8.70;;;7.25;;
21903;SDS011;11116;51.554;7.812;2022-08-05T04:51:13;12.27;;;7.82;;
21903;SDS011;11116;51.554;7.812;2022-08-05T04:53:41;13.60;;;7.88;;
21903;SDS011;11116;51.554;7.812;2022-08-05T04:56:08;12.73;;;7.13;;
21903;SDS011;11116;51.554;7.812;2022-08-05T04:58:35;11.15;;;8.05;;
21903;SDS011;11116;51.554;7.812;2022-08-05T05:01:05;10.50;;;8.07;;
21903;SDS011;11116;51.554;7.812;2022-08-05T05:03:32;13.35;;;8.18;;
21903;SDS011;11116;51.554;7.812;2022-08-05T05:06:00;13.43;;;7.53;;
21903;SDS011;11116;51.554;7.812;2022-08-05T05:08:27;8.80;;;7.13;;
21903;SDS011;11116;51.554;7.812;2022-08-05T05:10:54;19.63;;;8.95;;
21903;SDS011;11116;51.554;7.812;2022-08-05T05:13:21;10.77;;;7.45;;
21903;SDS011;11116;51.554;7.812;2022-08-05T05:15:48;9.18;;;7.65;;
21903;SDS011;11116;51.554;7.812;2022-08-05T05:18:15;12.20;;;7.22;;
21903;SDS011;11116;51.554;7.812;2022-08-05T05:20:43;9.82;;;8.57;;
21903;SDS011;11116;51.554;7.812;2022-08-05T05:23:12;11.52;;;8.02;;
21903;SDS011;11116;51.554;7.812;2022-08-05T05:25:39;10.05;;;7.65;;
21903;SDS011;11116;51.554;7.812;2022-08-05T05:28:07;10.07;;;7.03;;
21903;SDS011;11116;51.554;7.812;2022-08-05T05:30:34;13.23;;;7.35;;
21903;SDS011;11116;51.554;7.812;2022-08-05T05:33:02;15.35;;;7.40;;
21903;SDS011;11116;51.554;7.812;2022-08-05T05:35:30;10.93;;;7.65;;
21903;SDS011;11116;51.554;7.812;2022-08-05T05:37:58;14.57;;;7.18;;
21903;SDS011;11116;51.554;7.812;2022-08-05T05:40:28;8.93;;;7.50;;
21903;SDS011;11116;51.554;7.812;2022-08-05T05:42:56;11.63;;;7.13;;
21903;SDS011;11116;51.554;7.812;2022-08-05T05:45:23;12.30;;;8.00;;
21903;SDS011;11116;51.554;7.812;2022-08-05T05:47:50;11.13;;;8.23;;
21903;SDS011;11116;51.554;7.812;2022-08-05T05:50:18;12.38;;;7.43;;
21903;SDS011;11116;51.554;7.812;2022-08-05T05:52:45;9.23;;;7.80;;
21903;SDS011;11116;51.554;7.812;2022-08-05T05:55:13;13.63;;;9.23;;
21903;SDS011;11116;51.554;7.812;2022-08-05T05:57:43;11.45;;;8.20;;
21903;SDS011;11116;51.554;7.812;2022-08-05T06:00:13;13.05;;;8.15;;
21903;SDS011;11116;51.554;7.812;2022-08-05T06:02:42;13.90;;;8.90;;
21903;SDS011;11116;51.554;7.812;2022-08-05T06:05:10;10.60;;;7.88;;
21903;SDS011;11116;51.554;7.812;2022-08-05T06:07:38;10.02;;;8.20;;
21903;SDS011;11116;51.554;7.812;2022-08-05T06:10:06;12.45;;;9.55;;
21903;SDS011;11116;51.554;7.812;2022-08-05T06:12:34;10.63;;;9.10;;
21903;SDS011;11116;51.554;7.812;2022-08-05T06:15:04;15.85;;;9.48;;
21903;SDS011;11116;51.554;7.812;2022-08-05T06:17:32;13.15;;;9.52;;
21903;SDS011;11116;51.554;7.812;2022-08-05T06:19:59;14.65;;;9.85;;
21903;SDS011;11116;51.554;7.812;2022-08-05T06:22:26;16.85;;;10.32;;
21903;SDS011;11116;51.554;7.812;2022-08-05T06:24:55;14.48;;;9.77;;
21903;SDS011;11116;51.554;7.812;2022-08-05T06:27:22;16.17;;;10.45;;
21903;SDS011;11116;51.554;7.812;2022-08-05T06:29:49;12.90;;;9.43;;
21903;SDS011;11116;51.554;7.812;2022-08-05T06:32:18;18.35;;;11.75;;
21903;SDS011;11116;51.554;7.812;2022-08-05T06:34:45;16.20;;;11.88;;
21903;SDS011;11116;51.554;7.812;2022-08-05T06:37:12;17.83;;;11.73;;
21903;SDS011;11116;51.554;7.812;2022-08-05T06:39:39;17.73;;;12.15;;
21903;SDS011;11116;51.554;7.812;2022-08-05T06:42:06;19.40;;;12.98;;
21903;SDS011;11116;51.554;7.812;2022-08-05T06:44:33;15.48;;;11.75;;
21903;SDS011;11116;51.554;7.812;2022-08-05T06:47:00;17.55;;;12.35;;
21903;SDS011;11116;51.554;7.812;2022-08-05T06:49:28;20.70;;;13.18;;
21903;SDS011;11116;51.554;7.812;2022-08-05T06:51:55;19.55;;;12.82;;
21903;SDS011;11116;51.554;7.812;2022-08-05T06:54:22;20.08;;;14.05;;
21903;SDS011;11116;51.554;7.812;2022-08-05T06:56:49;17.08;;;14.07;;
21903;SDS011;11116;51.554;7.812;2022-08-05T06:59:16;17.27;;;13.82;;
21903;SDS011;11116;51.554;7.812;2022-08-05T07:01:43;23.13;;;14.75;;
21903;SDS011;11116;51.554;7.812;2022-08-05T07:04:10;22.80;;;15.50;;
21903;SDS011;11116;51.554;7.812;2022-08-05T07:06:38;19.35;;;15.05;;
21903;SDS011;11116;51.554;7.812;2022-08-05T07:09:05;25.08;;;17.30;;
21903;SDS011;11116;51.554;7.812;2022-08-05T07:11:32;20.23;;;15.60;;
21903;SDS011;11116;51.554;7.812;2022-08-05T07:13:59;21.70;;;16.83;;
21903;SDS011;11116;51.554;7.812;2022-08-05T07:16:44;26.05;;;18.10;;
21903;SDS011;11116;51.554;7.812;2022-08-05T07:19:24;106.18;;;56.88;;
21903;SDS011;11116;51.554;7.812;2022-08-05T07:21:53;35.55;;;22.20;;
21903;SDS011;11116;51.554;7.812;2022-08-05T07:24:20;37.10;;;20.67;;
21903;SDS011;11116;51.554;7.812;2022-08-05T07:26:48;22.88;;;17.77;;
21903;SDS011;11116;51.554;7.812;2022-08-05T07:29:15;23.70;;;18.17;;
21903;SDS011;11116;51.554;7.812;2022-08-05T07:31:42;28.00;;;19.77;;
21903;SDS011;11116;51.554;7.812;2022-08-05T07:34:09;23.55;;;18.75;;
21903;SDS011;11116;51.554;7.812;2022-08-05T07:36:36;26.40;;;18.88;;
21903;SDS011;11116;51.554;7.812;2022-08-05T07:39:05;25.67;;;17.88;;
21903;SDS011;11116;51.554;7.812;2022-08-05T07:41:32;24.65;;;18.55;;
21903;SDS011;11116;51.554;7.812;2022-08-05T07:44:00;26.23;;;18.90;;
21903;SDS011;11116;51.554;7.812;2022-08-05T07:46:28;25.92;;;18.33;;
21903;SDS011;11116;51.554;7.812;2022-08-05T07:48:57;26.33;;;18.92;;
21903;SDS011;11116;51.554;7.812;2022-08-05T07:51:26;26.10;;;18.55;;
21903;SDS011;11116;51.554;7.812;2022-08-05T07:53:53;27.58;;;19.45;;
21903;SDS011;11116;51.554;7.812;2022-08-05T07:56:21;28.77;;;19.23;;
21903;SDS011;11116;51.554;7.812;2022-08-05T07:58:48;31.63;;;20.45;;
21903;SDS011;11116;51.554;7.812;2022-08-05T08:01:15;27.90;;;19.60;;
21903;SDS011;11116;51.554;7.812;2022-08-05T08:03:42;25.77;;;20.02;;
21903;SDS011;11116;51.554;7.812;2022-08-05T08:06:09;31.33;;;19.17;;
21903;SDS011;11116;51.554;7.812;2022-08-05T08:08:35;24.73;;;18.83;;
21903;SDS011;11116;51.554;7.812;2022-08-05T08:11:02;25.40;;;17.42;;
21903;SDS011;11116;51.554;7.812;2022-08-05T08:13:31;23.77;;;18.60;;
21903;SDS011;11116;51.554;7.812;2022-08-05T08:15:58;24.85;;;17.13;;
21903;SDS011;11116;51.554;7.812;2022-08-05T08:18:24;20.92;;;17.05;;
21903;SDS011;11116;51.554;7.812;2022-08-05T08:20:51;23.10;;;15.77;;
21903;SDS011;11116;51.554;7.812;2022-08-05T08:23:18;19.00;;;15.30;;
21903;SDS011;11116;51.554;7.812;2022-08-05T08:25:45;19.25;;;14.50;;
21903;SDS011;11116;51.554;7.812;2022-08-05T08:28:12;17.65;;;15.02;;
21903;SDS011;11116;51.554;7.812;2022-08-05T08:30:40;18.17;;;14.57;;
21903;SDS011;11116;51.554;7.812;2022-08-05T08:33:07;19.58;;;13.93;;
21903;SDS011;11116;51.554;7.812;2022-08-05T08:35:35;18.08;;;14.02;;
21903;SDS011;11116;51.554;7.812;2022-08-05T08:38:02;18.67;;;15.18;;
21903;SDS011;11116;51.554;7.812;2022-08-05T08:40:31;19.92;;;15.50;;
21903;SDS011;11116;51.554;7.812;2022-08-05T08:42:59;24.25;;;16.85;;
21903;SDS011;11116;51.554;7.812;2022-08-05T08:45:29;24.88;;;17.58;;
21903;SDS011;11116;51.554;7.812;2022-08-05T08:47:58;22.48;;;18.13;;
21903;SDS011;11116;51.554;7.812;2022-08-05T08:50:29;25.13;;;17.15;;
21903;SDS011;11116;51.554;7.812;2022-08-05T08:52:58;19.42;;;16.80;;
21903;SDS011;11116;51.554;7.812;2022-08-05T08:55:27;19.67;;;15.75;;
21903;SDS011;11116;51.554;7.812;2022-08-05T08:57:54;15.85;;;14.02;;
21903;SDS011;11116;51.554;7.812;2022-08-05T09:00:22;24.70;;;14.93;;
21903;SDS011;11116;51.554;7.812;2022-08-05T09:02:49;18.38;;;11.77;;
21903;SDS011;11116;51.554;7.812;2022-08-05T09:05:19;15.73;;;10.90;;
21903;SDS011;11116;51.554;7.812;2022-08-05T09:07:47;12.20;;;9.55;;
21903;SDS011;11116;51.554;7.812;2022-08-05T09:10:15;16.52;;;8.95;;
21903;SDS011;11116;51.554;7.812;2022-08-05T09:12:42;19.25;;;9.60;;
21903;SDS011;11116;51.554;7.812;2022-08-05T09:15:10;11.95;;;8.65;;
21903;SDS011;11116;51.554;7.812;2022-08-05T09:17:37;13.63;;;8.18;;
21903;SDS011;11116;51.554;7.812;2022-08-05T09:20:06;9.38;;;7.90;;
21903;SDS011;11116;51.554;7.812;2022-08-05T09:25:37;13.15;;;7.60;;
21903;SDS011;11116;51.554;7.812;2022-08-05T09:28:09;9.35;;;7.03;;
21903;SDS011;11116;51.554;7.812;2022-08-05T09:30:41;12.27;;;7.07;;
21903;SDS011;11116;51.554;7.812;2022-08-05T09:33:08;10.73;;;7.35;;
21903;SDS011;11116;51.554;7.812;2022-08-05T09:35:35;12.60;;;7.03;;
21903;SDS011;11116;51.554;7.812;2022-08-05T09:38:05;13.25;;;7.47;;
21903;SDS011;11116;51.554;7.812;2022-08-05T09:40:34;12.65;;;8.38;;
21903;SDS011;11116;51.554;7.812;2022-08-05T09:43:05;15.73;;;8.02;;
21903;SDS011;11116;51.554;7.812;2022-08-05T09:45:35;11.25;;;6.93;;
21903;SDS011;11116;51.554;7.812;2022-08-05T09:50:54;11.40;;;7.85;;
21903;SDS011;11116;51.554;7.812;2022-08-05T09:53:22;8.18;;;7.38;;
21903;SDS011;11116;51.554;7.812;2022-08-05T09:55:55;7.70;;;5.18;;
21903;SDS011;11116;51.554;7.812;2022-08-05T09:58:24;9.68;;;5.70;;
21903;SDS011;11116;51.554;7.812;2022-08-05T10:00:56;10.30;;;6.15;;
21903;SDS011;11116;51.554;7.812;2022-08-05T10:03:25;12.75;;;7.80;;
21903;SDS011;11116;51.554;7.812;2022-08-05T10:06:00;13.40;;;7.28;;
21903;SDS011;11116;51.554;7.812;2022-08-05T10:08:28;14.73;;;8.90;;
21903;SDS011;11116;51.554;7.812;2022-08-05T10:10:56;9.35;;;7.22;;
21903;SDS011;11116;51.554;7.812;2022-08-05T10:13:27;11.93;;;8.50;;
21903;SDS011;11116;51.554;7.812;2022-08-05T10:15:57;12.55;;;8.13;;
21903;SDS011;11116;51.554;7.812;2022-08-05T10:18:25;13.18;;;8.85;;
21903;SDS011;11116;51.554;7.812;2022-08-05T10:20:53;12.05;;;7.28;;
21903;SDS011;11116;51.554;7.812;2022-08-05T10:23:22;10.35;;;8.18;;
21903;SDS011;11116;51.554;7.812;2022-08-05T10:25:50;11.25;;;8.02;;
21903;SDS011;11116;51.554;7.812;2022-08-05T10:28:19;9.50;;;7.75;;
21903;SDS011;11116;51.554;7.812;2022-08-05T10:30:46;8.30;;;6.72;;
21903;SDS011;11116;51.554;7.812;2022-08-05T10:33:13;6.97;;;5.57;;
21903;SDS011;11116;51.554;7.812;2022-08-05T10:35:40;9.63;;;5.93;;
21903;SDS011;11116;51.554;7.812;2022-08-05T10:38:07;12.27;;;5.82;;
21903;SDS011;11116;51.554;7.812;2022-08-05T10:40:34;6.13;;;5.53;;
21903;SDS011;11116;51.554;7.812;2022-08-05T10:43:12;8.20;;;5.22;;
21903;SDS011;11116;51.554;7.812;2022-08-05T10:45:58;10.15;;;6.07;;
21903;SDS011;11116;51.554;7.812;2022-08-05T10:48:30;12.20;;;6.72;;
21903;SDS011;11116;51.554;7.812;2022-08-05T10:51:03;10.93;;;5.75;;
21903;SDS011;11116;51.554;7.812;2022-08-05T10:56:21;7.05;;;5.13;;
21903;SDS011;11116;51.554;7.812;2022-08-05T10:59:01;9.00;;;5.00;;
21903;SDS011;11116;51.554;7.812;2022-08-05T11:01:33;12.85;;;5.32;;
21903;SDS011;11116;51.554;7.812;2022-08-05T11:04:04;9.35;;;5.05;;
21903;SDS011;11116;51.554;7.812;2022-08-05T11:06:34;8.07;;;5.22;;
21903;SDS011;11116;51.554;7.812;2022-08-05T11:09:21;6.07;;;4.53;;
21903;SDS011;11116;51.554;7.812;2022-08-05T11:11:50;6.18;;;4.55;;
21903;SDS011;11116;51.554;7.812;2022-08-05T11:14:22;8.77;;;4.53;;
21903;SDS011;11116;51.554;7.812;2022-08-05T11:19:58;7.50;;;4.40;;
21903;SDS011;11116;51.554;7.812;2022-08-05T11:22:39;10.45;;;4.32;;
21903;SDS011;11116;51.554;7.812;2022-08-05T11:25:30;11.32;;;5.15;;
21903;SDS011;11116;51.554;7.812;2022-08-05T11:33:57;8.13;;;4.47;;
21903;SDS011;11116;51.554;7.812;2022-08-05T11:36:39;9.13;;;4.35;;
21903;SDS011;11116;51.554;7.812;2022-08-05T11:39:14;8.57;;;4.65;;
21903;SDS011;11116;51.554;7.812;2022-08-05T11:41:49;13.50;;;5.30;;
21903;SDS011;11116;51.554;7.812;2022-08-05T11:44:18;12.85;;;5.97;;
21903;SDS011;11116;51.554;7.812;2022-08-05T11:46:46;6.85;;;4.22;;
21903;SDS011;11116;51.554;7.812;2022-08-05T11:49:18;5.68;;;4.18;;
21903;SDS011;11116;51.554;7.812;2022-08-05T11:51:46;6.15;;;4.35;;
21903;SDS011;11116;51.554;7.812;2022-08-05T11:54:19;7.47;;;4.38;;
21903;SDS011;11116;51.554;7.812;2022-08-05T11:56:49;7.60;;;4.13;;
21903;SDS011;11116;51.554;7.812;2022-08-05T11:59:18;5.93;;;3.83;;
21903;SDS011;11116;51.554;7.812;2022-08-05T12:01:55;10.70;;;4.30;;
21903;SDS011;11116;51.554;7.812;2022-08-05T12:04:26;5.45;;;4.25;;
21903;SDS011;11116;51.554;7.812;2022-08-05T12:06:57;7.85;;;3.70;;
21903;SDS011;11116;51.554;7.812;2022-08-05T12:09:25;5.10;;;3.47;;
21903;SDS011;11116;51.554;7.812;2022-08-05T12:11:54;5.90;;;3.60;;
21903;SDS011;11116;51.554;7.812;2022-08-05T12:14:21;5.60;;;3.40;;
21903;SDS011;11116;51.554;7.812;2022-08-05T12:16:49;5.97;;;3.20;;
21903;SDS011;11116;51.554;7.812;2022-08-05T12:19:16;3.17;;;2.70;;
21903;SDS011;11116;51.554;7.812;2022-08-05T12:21:47;8.43;;;2.63;;
21903;SDS011;11116;51.554;7.812;2022-08-05T12:24:16;4.97;;;2.97;;
21903;SDS011;11116;51.554;7.812;2022-08-05T12:26:44;6.43;;;3.17;;
21903;SDS011;11116;51.554;7.812;2022-08-05T12:29:14;4.05;;;3.03;;
21903;SDS011;11116;51.554;7.812;2022-08-05T12:31:44;4.82;;;3.03;;
21903;SDS011;11116;51.554;7.812;2022-08-05T12:34:13;3.72;;;2.90;;
21903;SDS011;11116;51.554;7.812;2022-08-05T12:36:42;3.90;;;2.67;;
21903;SDS011;11116;51.554;7.812;2022-08-05T12:39:12;6.68;;;2.92;;
21903;SDS011;11116;51.554;7.812;2022-08-05T12:41:39;3.88;;;2.50;;
21903;SDS011;11116;51.554;7.812;2022-08-05T12:44:08;5.35;;;2.47;;
21903;SDS011;11116;51.554;7.812;2022-08-05T12:46:36;3.25;;;2.55;;
21903;SDS011;11116;51.554;7.812;2022-08-05T12:49:05;5.20;;;2.83;;
21903;SDS011;11116;51.554;7.812;2022-08-05T12:51:43;4.00;;;2.10;;
21903;SDS011;11116;51.554;7.812;2022-08-05T12:54:18;4.00;;;2.60;;
21903;SDS011;11116;51.554;7.812;2022-08-05T12:56:47;3.70;;;2.45;;
21903;SDS011;11116;51.554;7.812;2022-08-05T12:59:17;8.27;;;2.58;;
21903;SDS011;11116;51.554;7.812;2022-08-05T13:01:52;2.58;;;2.22;;
21903;SDS011;11116;51.554;7.812;2022-08-05T13:04:24;3.92;;;3.03;;
21903;SDS011;11116;51.554;7.812;2022-08-05T13:06:52;4.25;;;2.38;;
21903;SDS011;11116;51.554;7.812;2022-08-05T13:09:23;3.22;;;2.67;;
21903;SDS011;11116;51.554;7.812;2022-08-05T13:11:51;7.28;;;2.40;;
21903;SDS011;11116;51.554;7.812;2022-08-05T13:14:27;4.07;;;2.70;;
21903;SDS011;11116;51.554;7.812;2022-08-05T13:17:00;4.13;;;2.55;;
21903;SDS011;11116;51.554;7.812;2022-08-05T13:19:27;5.15;;;2.97;;
21903;SDS011;11116;51.554;7.812;2022-08-05T13:21:54;5.13;;;2.83;;
21903;SDS011;11116;51.554;7.812;2022-08-05T13:24:22;4.07;;;2.03;;
21903;SDS011;11116;51.554;7.812;2022-08-05T13:26:50;3.00;;;2.63;;
21903;SDS011;11116;51.554;7.812;2022-08-05T13:29:18;4.22;;;2.63;;
21903;SDS011;11116;51.554;7.812;2022-08-05T13:31:47;3.28;;;2.55;;
21903;SDS011;11116;51.554;7.812;2022-08-05T13:34:14;5.82;;;2.88;;
21903;SDS011;11116;51.554;7.812;2022-08-05T13:36:42;3.30;;;2.10;;
21903;SDS011;11116;51.554;7.812;2022-08-05T13:39:09;2.10;;;1.90;;
21903;SDS011;11116;51.554;7.812;2022-08-05T13:41:39;4.57;;;2.38;;
21903;SDS011;11116;51.554;7.812;2022-08-05T13:44:06;2.13;;;1.92;;
21903;SDS011;11116;51.554;7.812;2022-08-05T13:46:33;4.25;;;2.13;;
21903;SDS011;11116;51.554;7.812;2022-08-05T13:49:00;2.20;;;2.00;;
21903;SDS011;11116;51.554;7.812;2022-08-05T13:51:28;2.38;;;1.80;;
21903;SDS011;11116;51.554;7.812;2022-08-05T13:53:57;5.50;;;2.17;;
21903;SDS011;11116;51.554;7.812;2022-08-05T13:56:24;2.08;;;1.85;;
21903;SDS011;11116;51.554;7.812;2022-08-05T13:58:52;4.40;;;2.40;;
21903;SDS011;11116;51.554;7.812;2022-08-05T14:01:20;4.90;;;2.25;;
21903;SDS011;11116;51.554;7.812;2022-08-05T14:03:47;3.38;;;2.03;;
21903;SDS011;11116;51.554;7.812;2022-08-05T14:06:28;7.43;;;2.08;;
21903;SDS011;11116;51.554;7.812;2022-08-05T14:08:55;4.18;;;2.17;;
21903;SDS011;11116;51.554;7.812;2022-08-05T14:11:23;3.70;;;2.25;;
21903;SDS011;11116;51.554;7.812;2022-08-05T14:13:50;4.07;;;2.40;;
21903;SDS011;11116;51.554;7.812;2022-08-05T14:16:18;3.25;;;1.92;;
21903;SDS011;11116;51.554;7.812;2022-08-05T14:18:45;4.30;;;1.95;;
21903;SDS011;11116;51.554;7.812;2022-08-05T14:21:12;2.70;;;1.90;;
21903;SDS011;11116;51.554;7.812;2022-08-05T14:23:39;7.50;;;2.20;;
21903;SDS011;11116;51.554;7.812;2022-08-05T14:26:06;2.90;;;2.25;;
21903;SDS011;11116;51.554;7.812;2022-08-05T14:28:33;2.83;;;1.90;;
21903;SDS011;11116;51.554;7.812;2022-08-05T14:30:59;3.50;;;2.08;;
21903;SDS011;11116;51.554;7.812;2022-08-05T14:33:28;3.38;;;1.80;;
21903;SDS011;11116;51.554;7.812;2022-08-05T14:35:55;5.13;;;2.35;;
21903;SDS011;11116;51.554;7.812;2022-08-05T14:38:22;4.55;;;2.13;;
21903;SDS011;11116;51.554;7.812;2022-08-05T14:40:49;2.03;;;1.77;;
21903;SDS011;11116;51.554;7.812;2022-08-05T14:43:16;3.22;;;1.75;;
21903;SDS011;11116;51.554;7.812;2022-08-05T14:45:43;1.52;;;1.35;;
21903;SDS011;11116;51.554;7.812;2022-08-05T14:48:10;3.42;;;1.85;;
21903;SDS011;11116;51.554;7.812;2022-08-05T14:50:38;1.92;;;1.77;;
21903;SDS011;11116;51.554;7.812;2022-08-05T14:53:05;3.40;;;1.80;;
21903;SDS011;11116;51.554;7.812;2022-08-05T14:55:32;3.65;;;1.90;;
21903;SDS011;11116;51.554;7.812;2022-08-05T14:58:00;4.53;;;1.85;;
21903;SDS011;11116;51.554;7.812;2022-08-05T15:00:27;2.60;;;1.98;;
21903;SDS011;11116;51.554;7.812;2022-08-05T15:02:54;3.90;;;1.98;;
21903;SDS011;11116;51.554;7.812;2022-08-05T15:05:21;6.05;;;2.58;;
21903;SDS011;11116;51.554;7.812;2022-08-05T15:07:52;1.63;;;1.52;;
21903;SDS011;11116;51.554;7.812;2022-08-05T15:10:19;5.78;;;1.88;;